createdAt,value
2022-09-23T00:04:08.622Z,98175.00
2022-09-23T00:08:11.705Z,98176.00
2022-09-23T00:12:12.813Z,98170.00
2022-09-23T00:16:17.565Z,98174.00
2022-09-23T00:20:18.982Z,98170.00
2022-09-23T00:24:20.039Z,98162.00
2022-09-23T00:28:21.079Z,98169.00
2022-09-23T00:32:22.215Z,98162.00
2022-09-23T00:36:24.577Z,98158.00
2022-09-23T00:40:25.610Z,98159.00
2022-09-23T00:44:48.583Z,98149.00
2022-09-23T00:48:54.286Z,98154.00
2022-09-23T00:52:57.675Z,98150.00
2022-09-23T00:57:00.358Z,98143.00
2022-09-23T01:01:03.103Z,98136.00
2022-09-23T01:05:06.612Z,98136.00
2022-09-23T01:09:07.912Z,98124.00
2022-09-23T01:13:15.593Z,98125.00
2022-09-23T01:17:23.371Z,98117.00
2022-09-23T01:21:48.791Z,98129.00
2022-09-23T01:26:17.553Z,98120.00
2022-09-23T01:30:38.773Z,98109.00
2022-09-23T01:34:49.648Z,98116.00
2022-09-23T01:39:06.758Z,98113.00
2022-09-23T01:43:17.840Z,98110.00
2022-09-23T01:47:22.502Z,98113.00
2022-09-23T01:51:27.409Z,98100.00
2022-09-23T01:55:34.943Z,98105.00
2022-09-23T01:59:38.999Z,98101.00
2022-09-23T02:03:43.764Z,98095.00
2022-09-23T02:07:49.020Z,98092.00
2022-09-23T02:11:53.438Z,98090.00
2022-09-23T02:15:57.989Z,98089.00
2022-09-23T02:20:05.342Z,98091.00
2022-09-23T02:24:18.934Z,98084.00
2022-09-23T02:28:40.416Z,98082.00
2022-09-23T02:32:45.308Z,98081.00
2022-09-23T02:36:55.827Z,98076.00
2022-09-23T02:41:17.816Z,98084.00
2022-09-23T02:45:19.151Z,98076.00
2022-09-23T02:49:23.314Z,98076.00
2022-09-23T02:53:24.942Z,98074.00
2022-09-23T02:57:26.278Z,98062.00
2022-09-23T03:01:53.732Z,98058.00
2022-09-23T03:05:58.175Z,98045.00
2022-09-23T03:10:27.412Z,98052.00
2022-09-23T03:14:32.291Z,98048.00
2022-09-23T03:18:40.459Z,98047.00
2022-09-23T03:22:48.259Z,98066.00
2022-09-23T03:26:51.295Z,98045.00
2022-09-23T03:30:54.012Z,98049.00
2022-09-23T03:34:58.639Z,98044.00
2022-09-23T03:43:24.798Z,98041.00
2022-09-23T03:47:27.623Z,98033.00
2022-09-23T03:51:28.841Z,98028.00
2022-09-23T03:55:30.808Z,98035.00
2022-09-23T03:59:32.447Z,98029.00
2022-09-23T04:03:33.731Z,98023.00
2022-09-23T04:07:35.105Z,98017.00
2022-09-23T04:11:36.774Z,98001.00
2022-09-23T04:15:39.567Z,98005.00
2022-09-23T04:19:40.848Z,98000.00
2022-09-23T04:23:42.246Z,98005.00
2022-09-23T04:27:43.201Z,98011.00
2022-09-23T04:31:44.444Z,98015.00
2022-09-23T04:35:49.292Z,98010.00
2022-09-23T04:39:50.156Z,98002.00
2022-09-23T04:43:51.826Z,98009.00
2022-09-23T04:47:53.152Z,98004.00
2022-09-23T04:51:54.528Z,98002.00
2022-09-23T04:56:04.103Z,97991.00
2022-09-23T05:00:06.085Z,97991.00
2022-09-23T05:04:10.469Z,97992.00
2022-09-23T05:08:11.577Z,97996.00
2022-09-23T05:12:12.646Z,98002.00
2022-09-23T05:16:14.500Z,98004.00
2022-09-23T05:20:15.790Z,98004.00
2022-09-23T05:24:17.201Z,98003.00
2022-09-23T05:28:19.475Z,98006.00
2022-09-23T05:32:21.242Z,98011.00
2022-09-23T05:36:23.023Z,98012.00
2022-09-23T05:40:24.162Z,98010.00
2022-09-23T05:44:26.100Z,98007.00
2022-09-23T05:48:28.812Z,98010.00
2022-09-23T05:52:30.929Z,98006.00
2022-09-23T05:56:33.338Z,98007.00
2022-09-23T06:00:34.436Z,98011.00
2022-09-23T06:04:35.700Z,98010.00
2022-09-23T06:08:37.113Z,98014.00
2022-09-23T06:12:38.177Z,98031.00
2022-09-23T06:16:39.243Z,98016.00
2022-09-23T06:20:40.352Z,98010.00
2022-09-23T06:24:41.509Z,98004.00
2022-09-23T06:28:44.380Z,98003.00
2022-09-23T06:32:51.484Z,98005.00
2022-09-23T06:36:53.283Z,97998.00
2022-09-23T06:40:56.849Z,98002.00
2022-09-23T06:44:59.170Z,97994.00
2022-09-23T06:49:01.947Z,97992.00
2022-09-23T06:53:03.500Z,98000.00
2022-09-23T06:57:04.568Z,98002.00
2022-09-23T07:01:07.964Z,97998.00
2022-09-23T07:05:10.060Z,97996.00
2022-09-23T07:09:11.113Z,97999.00
2022-09-23T07:13:16.175Z,97999.00
2022-09-23T07:17:15.253Z,98000.00
2022-09-23T07:21:18.171Z,98001.00
2022-09-23T07:25:19.556Z,97999.00
2022-09-23T07:29:20.684Z,98001.00
2022-09-23T07:33:31.768Z,97987.00
2022-09-23T07:37:24.576Z,98001.00
2022-09-23T07:41:28.381Z,97997.00
2022-09-23T07:45:31.367Z,98000.00
2022-09-23T07:49:34.767Z,98014.00
2022-09-23T07:53:36.339Z,97995.00
2022-09-23T07:57:37.319Z,97996.00
2022-09-23T08:01:41.809Z,97997.00
2022-09-23T08:05:42.777Z,98001.00
2022-09-23T08:09:44.258Z,97990.00
2022-09-23T08:13:45.341Z,97995.00
2022-09-23T08:17:46.496Z,98002.00
2022-09-23T08:21:47.707Z,97995.00
2022-09-23T08:25:48.676Z,98003.00
2022-09-23T08:29:49.997Z,98006.00
2022-09-23T08:33:55.816Z,97991.00
2022-09-23T08:37:57.379Z,97991.00
2022-09-23T08:42:11.749Z,97999.00
2022-09-23T08:46:16.475Z,98000.00
2022-09-23T08:50:20.667Z,97996.00
2022-09-23T08:54:22.634Z,97996.00
2022-09-23T08:58:55.069Z,97986.00
2022-09-23T09:02:56.245Z,97982.00
2022-09-23T09:07:40.173Z,97979.00
2022-09-23T09:11:15.016Z,97976.00
2022-09-23T09:15:19.836Z,97982.00
2022-09-23T09:19:36.441Z,97989.00
2022-09-23T09:23:47.275Z,97897.00
2022-09-23T09:27:48.415Z,97995.00
2022-09-23T09:31:50.118Z,97988.00
2022-09-23T09:36:05.062Z,97987.00
2022-09-23T09:40:10.207Z,97986.00
2022-09-23T09:44:20.798Z,97978.00
2022-09-23T09:48:27.275Z,97976.00
2022-09-23T09:52:29.092Z,97960.00
2022-09-23T09:56:33.732Z,97964.00
2022-09-23T10:00:42.401Z,97961.00
2022-09-23T10:04:43.434Z,97960.00
2022-09-23T10:08:52.243Z,97956.00
2022-09-23T10:12:53.238Z,97960.00
2022-09-23T10:17:06.122Z,97960.00
2022-09-23T10:21:11.627Z,97948.00
2022-09-23T10:25:24.157Z,97949.00
2022-09-23T10:29:31.669Z,97945.00
2022-09-23T10:33:33.037Z,97940.00
2022-09-23T10:37:38.340Z,97949.00
2022-09-23T10:42:01.635Z,97952.00
2022-09-23T10:46:25.218Z,97957.00
2022-09-23T10:50:33.146Z,97947.00
2022-09-23T10:54:57.890Z,97941.00
2022-09-23T10:59:23.681Z,97935.00
2022-09-23T11:03:46.706Z,97939.00
2022-09-23T11:08:09.857Z,97925.00
2022-09-23T11:12:23.851Z,97922.00
2022-09-23T11:16:59.193Z,97917.00
2022-09-23T11:21:17.964Z,97920.00
2022-09-23T11:25:29.700Z,97923.00
2022-09-23T11:29:52.824Z,97919.00
2022-09-23T11:34:18.629Z,97920.00
2022-09-23T11:38:24.995Z,97913.00
2022-09-23T11:42:30.126Z,97902.00
2022-09-23T11:46:35.127Z,97898.00
2022-09-23T11:50:39.918Z,97899.00
2022-09-23T11:54:44.947Z,97890.00
2022-09-23T11:58:54.288Z,97888.00
2022-09-23T12:03:09.311Z,97884.00
2022-09-23T12:07:14.359Z,97886.00
2022-09-23T12:11:35.988Z,97885.00
2022-09-23T12:15:46.506Z,97886.00
2022-09-23T12:20:03.865Z,97889.00
2022-09-23T12:24:33.164Z,97881.00
2022-09-23T12:28:41.118Z,97879.00
2022-09-23T12:32:42.757Z,97877.00
2022-09-23T12:36:45.111Z,97882.00
2022-09-23T12:40:47.778Z,97871.00
2022-09-23T12:44:49.069Z,97871.00
2022-09-23T12:48:57.482Z,97866.00
2022-09-23T12:53:03.370Z,97862.00
2022-09-23T12:57:11.284Z,97859.00
2022-09-23T13:01:19.246Z,97850.00
2022-09-23T13:05:41.538Z,97857.00
2022-09-23T13:09:46.569Z,97800.00
2022-09-23T13:13:49.673Z,97848.00
2022-09-23T13:17:51.039Z,97858.00
2022-09-23T13:21:56.218Z,97855.00
2022-09-23T13:26:00.657Z,97845.00
2022-09-23T13:30:05.822Z,97843.00
2022-09-23T13:34:07.642Z,97837.00
2022-09-23T13:38:23.250Z,97822.00
2022-09-23T13:42:29.767Z,97819.00
2022-09-23T13:46:34.669Z,97823.00
2022-09-23T13:50:40.277Z,97831.00
2022-09-23T13:54:49.698Z,97825.00
2022-09-23T13:58:51.737Z,97816.00
2022-09-23T14:02:53.099Z,97806.00
2022-09-23T14:06:55.081Z,97807.00
2022-09-23T14:10:59.237Z,97798.00
2022-09-23T14:15:00.863Z,97797.00
2022-09-23T14:19:02.913Z,97788.00
2022-09-23T14:23:10.785Z,97783.00
2022-09-23T14:27:15.297Z,97780.00
2022-09-23T14:31:16.719Z,97774.00
2022-09-23T14:35:26.039Z,97777.00
2022-09-23T14:39:28.930Z,97778.00
2022-09-23T14:43:30.300Z,97770.00
2022-09-23T14:47:34.484Z,97776.00
2022-09-23T14:51:48.386Z,97780.00
2022-09-23T14:55:58.871Z,97779.00
2022-09-23T15:00:15.752Z,97776.00
2022-09-23T15:04:23.636Z,97780.00
2022-09-23T15:08:27.188Z,97775.00
2022-09-23T15:12:29.515Z,97767.00
2022-09-23T15:16:30.966Z,97758.00
2022-09-23T15:20:32.874Z,97762.00
2022-09-23T15:24:44.408Z,97767.00
2022-09-23T15:28:46.570Z,97771.00
2022-09-23T15:32:47.936Z,97756.00
2022-09-23T15:36:49.101Z,97760.00
2022-09-23T15:40:50.588Z,97753.00
2022-09-23T15:44:51.715Z,97758.00
2022-09-23T15:49:05.534Z,97742.00
2022-09-23T15:53:07.070Z,97749.00
2022-09-23T15:57:08.084Z,97740.00
2022-09-23T16:01:13.047Z,97746.00
2022-09-23T16:05:21.237Z,97741.00
2022-09-23T16:09:43.030Z,97735.00
2022-09-23T16:13:44.269Z,97736.00
2022-09-23T16:17:47.458Z,97735.00
2022-09-23T16:21:48.270Z,97748.00
2022-09-23T16:25:49.630Z,97751.00
2022-09-23T16:29:50.733Z,97743.00
2022-09-23T16:33:52.970Z,97737.00
2022-09-23T16:37:54.525Z,97738.00
2022-09-23T16:41:55.826Z,97731.00
2022-09-23T16:45:57.422Z,97742.00
2022-09-23T16:49:58.733Z,97742.00
2022-09-23T16:53:59.685Z,97741.00
2022-09-23T16:58:00.779Z,97750.00
2022-09-23T17:02:20.090Z,97761.00
2022-09-23T17:06:23.172Z,97756.00
2022-09-23T17:10:24.312Z,97753.00
2022-09-23T17:14:25.640Z,97756.00
2022-09-23T17:18:27.104Z,97733.00
2022-09-23T17:22:29.260Z,97740.00
2022-09-23T17:26:30.373Z,97754.00
2022-09-23T17:30:31.690Z,97745.00
2022-09-23T17:34:32.787Z,97744.00
2022-09-23T17:38:34.699Z,97736.00
2022-09-23T17:42:41.838Z,97743.00
2022-09-23T17:46:43.224Z,97744.00
2022-09-23T17:50:56.323Z,97741.00
2022-09-23T17:54:57.398Z,97744.00
2022-09-23T17:59:02.169Z,97765.00
2022-09-23T18:03:03.228Z,97740.00
2022-09-23T18:07:04.410Z,97736.00
2022-09-23T18:11:18.267Z,97735.00
2022-09-23T18:15:20.192Z,97741.00
2022-09-23T18:19:22.838Z,97734.00
2022-09-23T18:23:26.118Z,97733.00
2022-09-23T18:27:26.991Z,97733.00
2022-09-23T18:31:31.112Z,97732.00
2022-09-23T18:35:32.126Z,97738.00
2022-09-23T18:39:33.093Z,97731.00
2022-09-23T18:43:40.750Z,97732.00
2022-09-23T18:47:56.925Z,97729.00
2022-09-23T18:51:57.930Z,97736.00
2022-09-23T18:56:01.718Z,97749.00
2022-09-23T19:00:03.601Z,97740.00
2022-09-23T19:04:06.050Z,97740.00
2022-09-23T19:08:07.626Z,97740.00
2022-09-23T19:12:08.682Z,97743.00
2022-09-23T19:16:12.062Z,97732.00
2022-09-23T19:20:13.083Z,97738.00
2022-09-23T19:24:16.279Z,97732.00
2022-09-23T19:28:17.451Z,97729.00
2022-09-23T19:32:18.576Z,97728.00
2022-09-23T19:36:36.769Z,97731.00
2022-09-23T19:40:38.148Z,97741.00
2022-09-23T19:44:40.343Z,97717.00
2022-09-23T19:48:41.466Z,97721.00
2022-09-23T19:52:42.582Z,97722.00
2022-09-23T19:56:43.542Z,97716.00
2022-09-23T20:00:44.913Z,97709.00
2022-09-23T20:04:46.242Z,97708.00
2022-09-23T20:08:49.196Z,97702.00
2022-09-23T20:12:50.279Z,97597.00
2022-09-23T20:16:52.464Z,97696.00
2022-09-23T20:20:54.296Z,97709.00
2022-09-23T20:24:55.597Z,97703.00
2022-09-23T20:28:58.490Z,97699.00
2022-09-23T20:33:00.112Z,97698.00
2022-09-23T20:37:01.228Z,97692.00
2022-09-23T20:41:02.504Z,97691.00
2022-09-23T20:45:05.046Z,97690.00
2022-09-23T20:49:07.946Z,97681.00
2022-09-23T20:53:09.067Z,97682.00
2022-09-23T20:57:12.142Z,97683.00
2022-09-23T21:01:13.876Z,97680.00
2022-09-23T21:05:17.088Z,97684.00
2022-09-23T21:09:19.569Z,97680.00
2022-09-23T21:13:20.633Z,97673.00
2022-09-23T21:17:22.506Z,97677.00
2022-09-23T21:21:23.625Z,97677.00
2022-09-23T21:25:28.060Z,97672.00
2022-09-23T21:29:27.688Z,97679.00
2022-09-23T21:33:29.902Z,97675.00
2022-09-23T21:37:31.154Z,97671.00
2022-09-23T21:41:32.945Z,97666.00
2022-09-23T21:45:34.070Z,97658.00
2022-09-23T21:49:36.159Z,97667.00
2022-09-23T21:53:37.857Z,97661.00
2022-09-23T21:57:38.937Z,97656.00
2022-09-23T22:01:44.261Z,97658.00
2022-09-23T22:05:45.316Z,97650.00
2022-09-23T22:10:06.619Z,97665.00
2022-09-23T22:14:10.618Z,97652.00
2022-09-23T22:18:11.915Z,97644.00
2022-09-23T22:22:14.924Z,97654.00
2022-09-23T22:26:15.871Z,97669.00
2022-09-23T22:30:35.405Z,97666.00
2022-09-23T22:34:49.539Z,97649.00
2022-09-23T22:38:41.021Z,97659.00
2022-09-23T22:42:42.965Z,97652.00
2022-09-23T22:46:45.315Z,97654.00
2022-09-23T22:50:47.117Z,97657.00
2022-09-23T22:54:48.180Z,97657.00
2022-09-23T22:58:49.230Z,97650.00
2022-09-23T23:02:50.215Z,97652.00
2022-09-23T23:06:51.376Z,97661.00
2022-09-23T23:10:54.261Z,97650.00
2022-09-23T23:14:55.916Z,97652.00
2022-09-23T23:18:56.979Z,97649.00
2022-09-23T23:23:01.348Z,97645.00
2022-09-23T23:27:02.421Z,97631.00
2022-09-23T23:31:06.637Z,97628.00
2022-09-23T23:35:08.388Z,97621.00
2022-09-23T23:39:10.391Z,97620.00
2022-09-23T23:43:11.468Z,97633.00
2022-09-23T23:47:12.517Z,97635.00
2022-09-23T23:51:14.764Z,97626.00
2022-09-23T23:55:16.391Z,97620.00
2022-09-23T23:59:19.515Z,97616.00
